createdAt,value
2022-11-18T00:00:17.069Z,11.90
2022-11-18T00:01:23.662Z,11.90
2022-11-18T00:02:25.694Z,11.90
2022-11-18T00:03:28.593Z,12.00
2022-11-18T00:04:31.685Z,11.90
2022-11-18T00:05:33.777Z,12.00
2022-11-18T00:06:35.730Z,12.00
2022-11-18T00:07:37.684Z,12.00
2022-11-18T00:08:46.924Z,12.00
2022-11-18T00:09:48.766Z,12.00
2022-11-18T00:10:50.907Z,12.00
2022-11-18T00:12:11.488Z,12.00
2022-11-18T00:13:32.049Z,12.00
2022-11-18T00:14:35.227Z,11.90
2022-11-18T00:15:37.265Z,11.90
2022-11-18T00:16:39.043Z,11.90
2022-11-18T00:17:40.723Z,11.90
2022-11-18T00:18:42.831Z,11.90
2022-11-18T00:19:44.899Z,11.90
2022-11-18T00:20:46.877Z,11.90
2022-11-18T00:21:50.334Z,11.90
2022-11-18T00:22:52.069Z,11.90
2022-11-18T00:23:53.908Z,11.90
2022-11-18T00:24:56.847Z,11.90
2022-11-18T00:26:04.817Z,12.10
2022-11-18T00:27:07.253Z,11.80
2022-11-18T00:28:09.094Z,11.90
2022-11-18T00:29:11.760Z,12.00
2022-11-18T00:30:13.689Z,11.80
2022-11-18T00:31:18.359Z,11.80
2022-11-18T00:32:20.049Z,11.80
2022-11-18T00:33:21.910Z,11.90
2022-11-18T00:34:24.766Z,11.90
2022-11-18T00:35:26.640Z,11.90
2022-11-18T00:36:29.573Z,11.90
2022-11-18T00:37:31.236Z,11.90
2022-11-18T00:38:33.193Z,11.90
2022-11-18T00:39:34.926Z,11.90
2022-11-18T00:40:36.817Z,11.90
2022-11-18T00:41:57.539Z,11.90
2022-11-18T00:42:59.734Z,12.10
2022-11-18T00:44:09.202Z,11.90
2022-11-18T00:45:12.766Z,11.90
2022-11-18T00:46:15.079Z,11.90
2022-11-18T00:47:17.140Z,11.80
2022-11-18T00:48:21.968Z,11.90
2022-11-18T00:49:24.583Z,11.90
2022-11-18T00:50:26.850Z,11.90
2022-11-18T00:51:28.736Z,11.90
2022-11-18T00:52:30.868Z,11.90
2022-11-18T00:53:32.736Z,11.90
2022-11-18T00:54:35.030Z,11.90
2022-11-18T00:55:36.830Z,11.90
2022-11-18T00:56:39.901Z,11.90
2022-11-18T00:57:41.744Z,11.90
2022-11-18T00:58:43.630Z,11.90
2022-11-18T00:59:45.693Z,11.90
2022-11-18T01:00:52.669Z,11.90
2022-11-18T01:01:54.679Z,11.90
2022-11-18T01:02:56.468Z,11.90
2022-11-18T01:03:58.641Z,11.90
2022-11-18T01:05:00.850Z,11.90
2022-11-18T01:06:02.574Z,11.80
2022-11-18T01:07:04.706Z,11.80
2022-11-18T01:08:08.406Z,11.80
2022-11-18T01:09:10.084Z,11.90
2022-11-18T01:10:11.958Z,11.90
2022-11-18T01:11:32.614Z,11.90
2022-11-18T01:12:54.736Z,11.90
2022-11-18T01:13:56.700Z,11.90
2022-11-18T01:14:59.588Z,11.90
2022-11-18T01:16:01.629Z,11.90
2022-11-18T01:17:03.581Z,11.90
2022-11-18T01:18:05.393Z,11.90
2022-11-18T01:19:10.406Z,11.90
2022-11-18T01:20:12.343Z,12.00
2022-11-18T01:21:14.260Z,11.90
2022-11-18T01:22:16.402Z,11.90
2022-11-18T01:23:20.135Z,11.90
2022-11-18T01:24:22.417Z,11.90
2022-11-18T01:25:26.672Z,12.10
2022-11-18T01:26:28.451Z,12.00
2022-11-18T01:27:31.301Z,11.90
2022-11-18T01:28:33.412Z,12.00
2022-11-18T01:29:36.522Z,11.90
2022-11-18T01:30:40.511Z,11.90
2022-11-18T01:32:02.074Z,11.90
2022-11-18T01:33:05.569Z,11.90
2022-11-18T01:34:07.502Z,11.90
2022-11-18T01:35:10.398Z,11.90
2022-11-18T01:36:24.157Z,11.90
2022-11-18T01:37:26.222Z,11.90
2022-11-18T01:38:28.697Z,11.90
2022-11-18T01:39:32.052Z,11.90
2022-11-18T01:40:34.991Z,12.00
2022-11-18T01:41:37.189Z,11.90
2022-11-18T01:42:39.305Z,12.00
2022-11-18T01:44:00.747Z,12.00
2022-11-18T01:45:19.677Z,12.00
2022-11-18T01:46:23.027Z,12.00
2022-11-18T01:47:28.853Z,12.00
2022-11-18T01:48:35.236Z,12.10
2022-11-18T01:49:37.296Z,11.90
2022-11-18T01:50:47.694Z,11.90
2022-11-18T01:51:57.447Z,11.90
2022-11-18T01:53:05.775Z,11.90
2022-11-18T01:54:15.056Z,11.90
2022-11-18T01:55:24.680Z,11.90
2022-11-18T01:56:43.255Z,11.90
2022-11-18T01:57:48.518Z,11.90
2022-11-18T01:58:57.770Z,12.00
2022-11-18T02:00:03.587Z,11.90
2022-11-18T02:01:06.947Z,11.90
2022-11-18T02:02:14.167Z,11.90
2022-11-18T02:03:17.348Z,12.10
2022-11-18T02:04:19.545Z,11.90
2022-11-18T02:05:22.731Z,11.90
2022-11-18T02:06:26.672Z,11.90
2022-11-18T02:07:29.140Z,11.90
2022-11-18T02:08:31.896Z,11.90
2022-11-18T02:09:33.952Z,12.00
2022-11-18T02:10:43.339Z,12.00
2022-11-18T02:11:51.211Z,12.00
2022-11-18T02:12:54.582Z,12.00
2022-11-18T02:13:57.192Z,12.00
2022-11-18T02:15:00.108Z,12.00
2022-11-18T02:16:15.893Z,12.00
2022-11-18T02:17:52.444Z,12.00
2022-11-18T02:19:02.174Z,12.00
2022-11-18T02:22:25.238Z,12.00
2022-11-18T02:23:48.344Z,12.00
2022-11-18T02:25:22.366Z,12.00
2022-11-18T02:26:24.208Z,12.00
2022-11-18T02:27:34.727Z,12.00
2022-11-18T02:28:57.686Z,12.00
2022-11-18T02:30:04.550Z,12.00
2022-11-18T02:31:17.477Z,12.00
2022-11-18T02:32:34.128Z,12.00
2022-11-18T02:33:57.789Z,11.80
2022-11-18T02:35:03.297Z,12.00
2022-11-18T02:36:23.374Z,12.00
2022-11-18T02:37:57.688Z,12.00
2022-11-18T02:39:08.028Z,12.00
2022-11-18T02:40:16.927Z,12.00
2022-11-18T02:41:23.683Z,12.00
2022-11-18T02:42:27.693Z,12.00
2022-11-18T02:43:34.199Z,12.00
2022-11-18T02:44:39.348Z,12.00
2022-11-18T02:45:46.406Z,12.00
2022-11-18T02:46:53.077Z,12.00
2022-11-18T02:47:58.360Z,12.00
2022-11-18T02:49:02.390Z,12.00
2022-11-18T02:50:09.551Z,12.00
2022-11-18T02:51:15.785Z,12.00
2022-11-18T02:52:20.286Z,12.00
2022-11-18T02:53:25.436Z,12.00
2022-11-18T02:54:29.504Z,12.00
2022-11-18T02:55:35.360Z,12.00
2022-11-18T02:56:37.983Z,11.90
2022-11-18T02:57:44.775Z,11.90
2022-11-18T02:58:47.448Z,12.00
2022-11-18T02:59:50.443Z,12.00
2022-11-18T03:01:00.520Z,12.00
2022-11-18T03:02:04.336Z,11.90
2022-11-18T03:03:34.009Z,11.90
2022-11-18T03:04:36.330Z,11.90
2022-11-18T03:05:54.845Z,11.90
2022-11-18T03:07:20.167Z,11.90
2022-11-18T03:08:28.137Z,11.90
2022-11-18T03:09:36.939Z,11.90
2022-11-18T03:10:48.699Z,11.90
2022-11-18T03:12:10.833Z,11.90
2022-11-18T03:13:26.968Z,11.90
2022-11-18T03:14:50.216Z,11.90
2022-11-18T03:16:07.059Z,11.90
2022-11-18T03:17:17.300Z,11.90
2022-11-18T03:18:46.017Z,12.10
2022-11-18T03:20:15.830Z,11.90
2022-11-18T03:21:23.308Z,11.80
2022-11-18T03:22:38.871Z,11.80
2022-11-18T03:23:56.851Z,11.80
2022-11-18T03:25:14.359Z,11.80
2022-11-18T03:26:29.881Z,11.80
2022-11-18T03:28:00.832Z,11.80
2022-11-18T03:29:09.780Z,11.80
2022-11-18T03:30:18.089Z,11.80
2022-11-18T03:31:27.553Z,11.80
2022-11-18T03:32:33.188Z,11.70
2022-11-18T03:33:39.316Z,11.70
2022-11-18T03:34:45.297Z,11.60
2022-11-18T03:35:49.595Z,11.60
2022-11-18T03:36:59.714Z,11.60
2022-11-18T03:38:15.786Z,11.60
2022-11-18T03:39:21.034Z,11.60
2022-11-18T03:40:27.385Z,11.60
2022-11-18T03:41:35.046Z,11.60
2022-11-18T03:42:45.283Z,11.60
2022-11-18T03:43:57.534Z,11.60
2022-11-18T03:45:07.358Z,11.60
2022-11-18T03:46:18.695Z,11.60
2022-11-18T03:47:29.878Z,11.60
2022-11-18T03:48:37.538Z,11.60
2022-11-18T03:49:51.659Z,11.60
2022-11-18T03:51:02.412Z,11.60
2022-11-18T03:52:14.641Z,11.60
2022-11-18T03:53:17.657Z,11.50
2022-11-18T03:54:25.180Z,11.50
2022-11-18T03:55:32.584Z,11.50
2022-11-18T03:56:40.638Z,11.50
2022-11-18T03:58:11.745Z,11.40
2022-11-18T03:59:22.371Z,11.40
2022-11-18T04:00:29.363Z,11.30
2022-11-18T04:01:45.595Z,11.30
2022-11-18T04:02:49.536Z,11.30
2022-11-18T04:03:51.490Z,11.30
2022-11-18T04:04:56.234Z,11.30
2022-11-18T04:06:09.672Z,11.20
2022-11-18T04:07:32.569Z,11.20
2022-11-18T04:08:39.174Z,11.20
2022-11-18T04:09:50.899Z,11.20
2022-11-18T04:11:03.883Z,11.20
2022-11-18T04:12:15.495Z,11.20
2022-11-18T04:13:26.290Z,11.30
2022-11-18T04:14:29.800Z,11.30
2022-11-18T04:15:32.505Z,11.30
2022-11-18T04:16:42.815Z,11.30
2022-11-18T04:17:44.898Z,11.30
2022-11-18T04:18:47.562Z,11.30
2022-11-18T04:19:49.826Z,11.40
2022-11-18T04:20:52.440Z,11.40
2022-11-18T04:21:54.657Z,11.40
2022-11-18T04:22:58.589Z,11.50
2022-11-18T04:24:00.292Z,11.50
2022-11-18T04:25:04.291Z,11.50
2022-11-18T04:26:06.246Z,11.50
2022-11-18T04:27:08.740Z,11.50
2022-11-18T04:28:10.561Z,11.50
2022-11-18T04:29:12.539Z,11.60
2022-11-18T04:30:14.350Z,11.60
2022-11-18T04:31:16.154Z,11.60
2022-11-18T04:32:17.859Z,11.60
2022-11-18T04:33:19.787Z,11.60
2022-11-18T04:34:21.504Z,11.60
2022-11-18T04:35:23.322Z,11.60
2022-11-18T04:36:25.299Z,11.50
2022-11-18T04:37:27.195Z,11.50
2022-11-18T04:38:29.008Z,11.50
2022-11-18T04:39:30.737Z,11.50
2022-11-18T04:40:32.468Z,11.50
2022-11-18T04:41:52.759Z,11.50
2022-11-18T04:42:54.580Z,11.40
2022-11-18T04:43:56.435Z,11.40
2022-11-18T04:44:58.764Z,11.40
2022-11-18T04:46:00.717Z,11.40
2022-11-18T04:47:05.743Z,11.30
2022-11-18T04:48:07.542Z,11.30
2022-11-18T04:49:12.998Z,11.20
2022-11-18T04:50:15.401Z,11.20
2022-11-18T04:51:17.374Z,11.20
2022-11-18T04:52:20.197Z,11.10
2022-11-18T04:53:22.014Z,11.10
2022-11-18T04:54:24.662Z,11.10
2022-11-18T04:55:27.450Z,11.00
2022-11-18T04:56:29.622Z,11.00
2022-11-18T04:57:31.424Z,11.00
2022-11-18T04:58:39.723Z,11.00
2022-11-18T04:59:41.468Z,11.00
2022-11-18T05:00:43.127Z,11.00
2022-11-18T05:01:45.344Z,11.00
2022-11-18T05:02:48.139Z,11.00
2022-11-18T05:03:50.798Z,11.00
2022-11-18T05:04:52.763Z,11.00
2022-11-18T05:05:54.495Z,11.00
2022-11-18T05:06:56.866Z,10.90
2022-11-18T05:07:58.713Z,10.90
2022-11-18T05:09:01.487Z,10.90
2022-11-18T05:10:03.415Z,10.90
2022-11-18T05:11:26.820Z,10.90
2022-11-18T05:12:47.776Z,10.90
2022-11-18T05:13:51.331Z,10.90
2022-11-18T05:14:53.157Z,10.90
2022-11-18T05:15:56.357Z,10.90
2022-11-18T05:17:00.804Z,10.90
2022-11-18T05:18:02.495Z,10.90
2022-11-18T05:19:05.795Z,10.90
2022-11-18T05:20:08.073Z,10.90
2022-11-18T05:21:09.939Z,10.90
2022-11-18T05:22:11.784Z,10.90
2022-11-18T05:23:13.591Z,10.90
2022-11-18T05:24:17.126Z,10.90
2022-11-18T05:25:18.900Z,11.00
2022-11-18T05:26:20.591Z,11.00
2022-11-18T05:27:22.283Z,11.00
2022-11-18T05:28:25.143Z,11.20
2022-11-18T05:29:26.895Z,11.00
2022-11-18T05:30:28.707Z,11.00
2022-11-18T05:31:32.913Z,11.00
2022-11-18T05:32:34.593Z,11.00
2022-11-18T05:33:36.670Z,10.90
2022-11-18T05:34:40.734Z,10.90
2022-11-18T05:35:43.626Z,10.90
2022-11-18T05:36:46.368Z,10.90
2022-11-18T05:37:49.129Z,10.90
2022-11-18T05:38:51.756Z,10.90
2022-11-18T05:39:53.588Z,10.90
2022-11-18T05:40:55.361Z,10.90
2022-11-18T05:42:16.972Z,11.00
2022-11-18T05:43:18.842Z,11.00
2022-11-18T05:44:20.529Z,11.00
2022-11-18T05:45:22.411Z,11.00
2022-11-18T05:46:27.388Z,11.00
2022-11-18T05:47:49.675Z,11.00
2022-11-18T05:48:54.079Z,11.00
2022-11-18T05:49:56.182Z,11.10
2022-11-18T05:50:58.301Z,11.10
2022-11-18T05:52:00.096Z,11.10
2022-11-18T05:53:02.485Z,11.10
2022-11-18T05:54:09.912Z,11.10
2022-11-18T05:55:14.401Z,11.10
2022-11-18T05:56:42.586Z,11.10
2022-11-18T05:57:44.285Z,11.10
2022-11-18T05:58:46.159Z,11.10
2022-11-18T05:59:48.229Z,11.10
2022-11-18T06:01:07.109Z,11.20
2022-11-18T06:02:17.824Z,11.20
2022-11-18T06:03:30.510Z,11.20
2022-11-18T06:04:43.889Z,11.20
2022-11-18T06:05:47.345Z,11.20
2022-11-18T06:06:51.248Z,11.20
2022-11-18T06:07:56.640Z,11.20
2022-11-18T06:09:03.951Z,11.20
2022-11-18T06:10:06.465Z,11.20
2022-11-18T06:11:11.624Z,11.20
2022-11-18T06:12:17.618Z,11.20
2022-11-18T06:13:25.219Z,11.30
2022-11-18T06:14:39.716Z,11.30
2022-11-18T06:15:43.482Z,11.30
2022-11-18T06:16:49.732Z,11.30
2022-11-18T06:17:57.812Z,11.30
2022-11-18T06:19:00.734Z,11.30
2022-11-18T06:20:04.840Z,11.30
2022-11-18T06:21:06.676Z,11.30
2022-11-18T06:22:10.063Z,11.30
2022-11-18T06:23:15.338Z,11.30
2022-11-18T06:24:18.423Z,11.30
2022-11-18T06:25:20.602Z,11.30
2022-11-18T06:26:22.480Z,11.30
2022-11-18T06:27:33.133Z,11.30
2022-11-18T06:28:36.907Z,11.30
2022-11-18T06:29:38.786Z,11.30
2022-11-18T06:30:40.766Z,11.30
2022-11-18T06:31:43.477Z,11.40
2022-11-18T06:32:45.332Z,11.30
2022-11-18T06:33:47.076Z,11.30
2022-11-18T06:34:51.720Z,11.30
2022-11-18T06:35:53.533Z,11.30
2022-11-18T06:36:55.720Z,11.30
2022-11-18T06:37:57.549Z,11.30
2022-11-18T06:39:06.858Z,11.30
2022-11-18T06:40:11.111Z,11.30
2022-11-18T06:41:17.249Z,11.30
2022-11-18T06:42:37.689Z,11.30
2022-11-18T06:43:43.415Z,11.30
2022-11-18T06:44:45.268Z,11.30
2022-11-18T06:46:09.315Z,11.30
2022-11-18T06:47:11.402Z,11.30
2022-11-18T06:48:13.212Z,11.30
2022-11-18T06:49:17.799Z,11.30
2022-11-18T06:50:19.845Z,11.30
2022-11-18T06:51:23.056Z,11.30
2022-11-18T06:52:25.504Z,11.30
2022-11-18T06:53:27.536Z,11.30
2022-11-18T06:54:30.958Z,11.30
2022-11-18T06:55:35.098Z,11.30
2022-11-18T06:56:36.855Z,11.30
2022-11-18T06:57:39.796Z,11.30
2022-11-18T06:58:41.993Z,11.30
2022-11-18T06:59:44.075Z,11.30
2022-11-18T07:00:45.859Z,11.30
2022-11-18T07:01:48.758Z,11.30
2022-11-18T07:02:50.446Z,11.30
2022-11-18T07:03:52.775Z,11.40
2022-11-18T07:04:54.586Z,11.30
2022-11-18T07:05:59.013Z,11.30
2022-11-18T07:07:04.561Z,11.30
2022-11-18T07:08:07.422Z,11.30
2022-11-18T07:09:11.669Z,11.30
2022-11-18T07:10:13.532Z,11.30
2022-11-18T07:11:19.666Z,11.40
2022-11-18T07:12:21.598Z,11.40
2022-11-18T07:13:23.938Z,11.40
2022-11-18T07:14:25.571Z,11.40
2022-11-18T07:15:27.712Z,11.40
2022-11-18T07:16:29.982Z,11.40
2022-11-18T07:17:37.812Z,11.40
2022-11-18T07:18:41.689Z,11.60
2022-11-18T07:19:43.357Z,11.40
2022-11-18T07:20:45.229Z,11.40
2022-11-18T07:21:47.415Z,11.40
2022-11-18T07:22:53.375Z,11.40
2022-11-18T07:23:56.614Z,11.40
2022-11-18T07:24:58.771Z,11.40
2022-11-18T07:26:00.946Z,11.40
2022-11-18T07:27:02.654Z,11.60
2022-11-18T07:28:04.428Z,11.40
2022-11-18T07:29:06.246Z,11.40
2022-11-18T07:30:08.328Z,11.40
2022-11-18T07:31:15.014Z,11.40
2022-11-18T07:32:16.843Z,11.30
2022-11-18T07:33:19.055Z,11.40
2022-11-18T07:34:20.688Z,11.30
2022-11-18T07:35:22.346Z,11.40
2022-11-18T07:36:32.322Z,11.40
2022-11-18T07:37:37.371Z,11.40
2022-11-18T07:38:40.048Z,11.40
2022-11-18T07:39:43.102Z,11.40
2022-11-18T07:40:44.916Z,11.40
2022-11-18T07:41:47.623Z,11.40
2022-11-18T07:42:49.526Z,11.40
2022-11-18T07:43:56.175Z,11.40
2022-11-18T07:45:00.711Z,11.40
2022-11-18T07:46:09.964Z,11.40
2022-11-18T07:47:11.813Z,11.40
2022-11-18T07:48:16.414Z,11.40
2022-11-18T07:49:18.682Z,11.40
2022-11-18T07:50:20.758Z,11.40
2022-11-18T07:51:25.393Z,11.40
2022-11-18T07:52:27.029Z,11.40
2022-11-18T07:53:31.722Z,11.50
2022-11-18T07:54:33.389Z,11.50
2022-11-18T07:55:36.172Z,11.50
2022-11-18T07:56:38.031Z,11.40
2022-11-18T07:57:47.901Z,11.50
2022-11-18T07:58:56.311Z,11.50
2022-11-18T07:59:58.000Z,11.50
2022-11-18T08:01:06.555Z,11.50
2022-11-18T08:02:13.640Z,11.50
2022-11-18T08:03:17.842Z,11.50
2022-11-18T08:04:20.071Z,11.50
2022-11-18T08:05:21.962Z,11.50
2022-11-18T08:06:23.930Z,11.50
2022-11-18T08:07:25.806Z,11.50
2022-11-18T08:08:29.031Z,11.40
2022-11-18T08:09:32.021Z,11.50
2022-11-18T08:10:33.920Z,11.50
2022-11-18T08:11:38.344Z,11.50
2022-11-18T08:12:40.329Z,11.50
2022-11-18T08:13:42.186Z,11.50
2022-11-18T08:14:43.982Z,11.50
2022-11-18T08:15:45.645Z,11.50
2022-11-18T08:16:48.688Z,11.50
2022-11-18T08:17:50.550Z,11.60
2022-11-18T08:18:52.958Z,11.60
2022-11-18T08:19:55.084Z,11.60
2022-11-18T08:21:01.009Z,11.60
2022-11-18T08:22:03.270Z,11.60
2022-11-18T08:23:07.496Z,11.60
2022-11-18T08:24:10.672Z,11.60
2022-11-18T08:25:12.897Z,11.60
2022-11-18T08:26:16.398Z,11.70
2022-11-18T08:27:19.582Z,11.70
2022-11-18T08:28:22.840Z,11.70
2022-11-18T08:29:25.632Z,11.70
2022-11-18T08:30:27.843Z,11.70
2022-11-18T08:31:31.281Z,11.70
2022-11-18T08:32:33.418Z,11.70
2022-11-18T08:33:35.101Z,11.70
2022-11-18T08:34:36.813Z,11.70
2022-11-18T08:35:38.553Z,11.70
2022-11-18T08:36:40.977Z,11.70
2022-11-18T08:37:43.059Z,11.70
2022-11-18T08:38:45.870Z,11.70
2022-11-18T08:39:47.585Z,11.70
2022-11-18T08:40:49.342Z,11.70
2022-11-18T08:41:51.202Z,11.70
2022-11-18T08:42:53.088Z,11.70
2022-11-18T08:43:56.065Z,11.70
2022-11-18T08:45:01.970Z,11.70
2022-11-18T08:46:05.417Z,11.70
2022-11-18T08:47:07.387Z,11.60
2022-11-18T08:48:09.140Z,11.70
2022-11-18T08:49:11.138Z,11.70
2022-11-18T08:50:13.137Z,11.70
2022-11-18T08:51:16.390Z,11.60
2022-11-18T08:52:18.116Z,11.60
2022-11-18T08:53:19.942Z,11.60
2022-11-18T08:54:21.862Z,11.60
2022-11-18T08:55:24.010Z,11.60
2022-11-18T08:56:26.248Z,11.60
2022-11-18T08:57:28.298Z,11.60
2022-11-18T08:58:34.886Z,11.50
2022-11-18T08:59:36.858Z,11.60
2022-11-18T09:00:38.965Z,11.40
2022-11-18T09:01:45.774Z,11.40
2022-11-18T09:02:49.546Z,11.40
2022-11-18T09:03:53.224Z,11.30
2022-11-18T09:04:55.254Z,11.30
2022-11-18T09:06:06.581Z,11.30
2022-11-18T09:07:08.665Z,11.30
2022-11-18T09:08:10.772Z,11.30
2022-11-18T09:09:12.454Z,11.40
2022-11-18T09:10:16.128Z,11.40
2022-11-18T09:11:24.265Z,11.40
2022-11-18T09:12:27.029Z,11.40
2022-11-18T09:14:20.504Z,11.50
2022-11-18T09:15:12.910Z,11.50
2022-11-18T09:16:15.685Z,11.50
2022-11-18T09:17:18.121Z,11.60
2022-11-18T09:18:20.244Z,11.60
2022-11-18T09:19:46.306Z,11.60
2022-11-18T09:20:53.229Z,11.60
2022-11-18T09:21:54.924Z,11.60
2022-11-18T09:22:56.863Z,11.70
2022-11-18T09:23:58.687Z,11.70
2022-11-18T09:25:00.708Z,11.70
2022-11-18T09:26:06.143Z,11.60
2022-11-18T09:27:13.716Z,11.70
2022-11-18T09:28:18.375Z,11.70
2022-11-18T09:29:25.280Z,11.80
2022-11-18T09:30:27.256Z,11.70
2022-11-18T09:31:29.328Z,11.70
2022-11-18T09:32:32.423Z,11.70
2022-11-18T09:33:35.529Z,11.70
2022-11-18T09:34:37.388Z,11.70
2022-11-18T09:35:44.676Z,11.70
2022-11-18T09:36:46.716Z,11.70
2022-11-18T09:37:49.706Z,11.80
2022-11-18T09:38:53.460Z,11.80
2022-11-18T09:39:55.551Z,11.70
2022-11-18T09:41:06.955Z,11.70
2022-11-18T09:42:14.331Z,11.70
2022-11-18T09:43:39.578Z,11.70
2022-11-18T09:45:15.357Z,11.70
2022-11-18T09:46:26.435Z,11.60
2022-11-18T09:47:33.978Z,11.60
2022-11-18T09:48:55.888Z,11.60
2022-11-18T09:51:49.048Z,11.50
2022-11-18T09:52:56.525Z,11.50
2022-11-18T09:54:00.488Z,11.50
2022-11-18T09:55:04.579Z,11.50
2022-11-18T09:56:14.754Z,11.50
2022-11-18T09:57:27.763Z,11.50
2022-11-18T09:58:36.125Z,11.50
2022-11-18T09:59:39.093Z,11.50
2022-11-18T10:00:45.547Z,11.50
2022-11-18T10:01:49.737Z,11.50
2022-11-18T10:02:51.695Z,11.50
2022-11-18T10:03:53.568Z,11.50
2022-11-18T10:04:57.664Z,11.50
2022-11-18T10:06:11.596Z,11.50
2022-11-18T10:07:22.706Z,11.50
2022-11-18T10:08:30.313Z,11.60
2022-11-18T10:09:41.498Z,11.60
2022-11-18T10:10:46.220Z,11.60
2022-11-18T10:12:33.249Z,11.60
2022-11-18T10:13:49.205Z,11.60
2022-11-18T10:15:32.175Z,11.70
2022-11-18T10:16:44.522Z,11.70
2022-11-18T10:18:07.986Z,11.70
2022-11-18T10:19:34.437Z,11.60
2022-11-18T10:21:01.093Z,11.60
2022-11-18T10:22:32.084Z,11.60
2022-11-18T10:23:45.856Z,11.60
2022-11-18T10:24:54.890Z,11.60
2022-11-18T10:26:01.453Z,11.70
2022-11-18T10:27:13.303Z,11.70
2022-11-18T10:28:26.703Z,11.70
2022-11-18T10:29:29.747Z,11.70
2022-11-18T10:30:31.548Z,11.80
2022-11-18T10:31:35.678Z,11.80
2022-11-18T10:32:56.691Z,11.80
2022-11-18T10:34:02.684Z,11.90
2022-11-18T10:35:22.708Z,11.90
2022-11-18T10:36:24.602Z,11.90
2022-11-18T10:38:06.295Z,11.90
2022-11-18T10:39:12.373Z,11.90
2022-11-18T10:40:26.088Z,12.00
2022-11-18T10:41:27.786Z,12.00
2022-11-18T10:42:37.591Z,11.90
2022-11-18T10:43:55.813Z,11.90
2022-11-18T10:45:16.990Z,12.00
2022-11-18T10:46:33.923Z,12.00
2022-11-18T10:47:35.754Z,12.00
2022-11-18T10:48:37.433Z,12.00
2022-11-18T10:49:40.193Z,12.00
2022-11-18T10:50:55.076Z,12.00
2022-11-18T10:52:10.384Z,12.00
2022-11-18T10:53:35.225Z,12.00
2022-11-18T10:54:37.377Z,12.00
2022-11-18T10:55:39.283Z,12.00
2022-11-18T10:56:57.730Z,12.00
2022-11-18T10:58:23.784Z,12.00
2022-11-18T10:59:33.413Z,12.10
2022-11-18T11:00:39.922Z,12.10
2022-11-18T11:01:41.840Z,12.10
2022-11-18T11:02:45.100Z,12.10
2022-11-18T11:04:01.664Z,12.10
2022-11-18T11:05:21.726Z,12.20
2022-11-18T11:06:33.578Z,12.10
2022-11-18T11:07:38.515Z,12.10
2022-11-18T11:08:54.629Z,12.10
2022-11-18T11:10:08.464Z,12.10
2022-11-18T11:11:45.035Z,12.10
2022-11-18T11:12:57.487Z,12.10
2022-11-18T11:14:13.467Z,12.10
2022-11-18T11:15:27.531Z,12.00
2022-11-18T11:16:31.522Z,12.00
2022-11-18T11:18:11.999Z,12.00
2022-11-18T11:19:18.781Z,12.00
2022-11-18T11:20:25.714Z,12.00
2022-11-18T11:21:30.750Z,12.00
2022-11-18T11:22:32.846Z,12.00
2022-11-18T11:23:34.955Z,11.90
2022-11-18T11:24:36.858Z,11.90
2022-11-18T11:29:45.802Z,11.70
2022-11-18T11:31:30.976Z,11.70
2022-11-18T11:32:51.326Z,11.70
2022-11-18T11:34:18.015Z,11.70
2022-11-18T11:35:28.428Z,11.60
2022-11-18T11:36:52.698Z,11.60
2022-11-18T11:38:09.919Z,11.60
2022-11-18T11:39:39.459Z,11.50
2022-11-18T11:40:55.800Z,11.60
2022-11-18T11:42:15.390Z,11.60
2022-11-18T11:43:46.818Z,11.70
2022-11-18T11:45:10.014Z,11.60
2022-11-18T11:46:19.586Z,11.70
2022-11-18T11:47:50.186Z,11.70
2022-11-18T11:48:57.269Z,11.70
2022-11-18T11:50:14.026Z,11.80
2022-11-18T11:51:32.733Z,11.90
2022-11-18T11:52:43.119Z,11.90
2022-11-18T11:53:48.040Z,12.00
2022-11-18T11:55:40.037Z,12.00
2022-11-18T11:57:04.955Z,12.00
2022-11-18T11:58:44.522Z,12.10
2022-11-18T12:00:09.387Z,12.10
2022-11-18T12:01:17.306Z,12.20
2022-11-18T12:02:43.673Z,11.90
2022-11-18T12:03:56.604Z,12.20
2022-11-18T12:05:03.271Z,12.20
2022-11-18T12:06:05.932Z,12.20
2022-11-18T12:07:18.619Z,12.20
2022-11-18T12:08:26.738Z,12.10
2022-11-18T12:09:58.690Z,12.10
2022-11-18T12:11:05.786Z,12.10
2022-11-18T12:12:39.213Z,12.10
2022-11-18T12:14:01.302Z,12.10
2022-11-18T12:15:24.371Z,12.10
2022-11-18T12:17:15.918Z,12.10
2022-11-18T12:18:21.900Z,12.10
2022-11-18T12:19:24.252Z,12.10
2022-11-18T12:20:55.205Z,12.00
2022-11-18T12:22:00.563Z,12.00
2022-11-18T12:23:13.953Z,12.00
2022-11-18T12:24:39.473Z,12.00
2022-11-18T12:25:46.748Z,11.90
2022-11-18T12:26:50.114Z,12.00
2022-11-18T12:27:59.610Z,11.90
2022-11-18T12:29:25.884Z,11.90
2022-11-18T12:30:27.662Z,11.90
2022-11-18T12:31:34.539Z,11.90
2022-11-18T12:32:45.366Z,11.90
2022-11-18T12:33:58.874Z,11.90
2022-11-18T12:35:23.109Z,11.90
2022-11-18T12:36:36.811Z,11.90
2022-11-18T12:38:02.069Z,11.90
2022-11-18T12:39:25.755Z,11.90
2022-11-18T12:40:52.537Z,11.90
2022-11-18T12:42:23.944Z,11.90
2022-11-18T12:43:44.356Z,11.90
2022-11-18T12:44:49.761Z,11.90
2022-11-18T12:45:53.655Z,11.90
2022-11-18T12:46:57.537Z,12.00
2022-11-18T12:47:59.250Z,12.00
2022-11-18T12:49:25.776Z,12.10
2022-11-18T12:50:47.880Z,12.10
2022-11-18T12:51:51.527Z,12.10
2022-11-18T12:52:54.700Z,12.20
2022-11-18T12:53:56.433Z,12.10
2022-11-18T12:55:01.484Z,12.10
2022-11-18T12:56:21.964Z,12.10
2022-11-18T12:57:29.114Z,12.10
2022-11-18T12:58:33.211Z,12.10
2022-11-18T12:59:37.217Z,12.10
2022-11-18T13:00:52.581Z,12.10
2022-11-18T13:02:21.886Z,12.10
2022-11-18T13:03:31.320Z,12.10
2022-11-18T13:04:37.850Z,12.10
2022-11-18T13:05:44.914Z,12.00
2022-11-18T13:06:47.773Z,12.00
2022-11-18T13:08:16.778Z,12.00
2022-11-18T13:09:26.948Z,11.90
2022-11-18T13:10:32.917Z,11.90
2022-11-18T13:11:51.874Z,11.90
2022-11-18T13:12:55.158Z,11.80
2022-11-18T13:14:16.436Z,11.80
2022-11-18T13:15:37.545Z,11.80
2022-11-18T13:17:06.055Z,11.80
2022-11-18T13:18:23.846Z,11.70
2022-11-18T13:19:26.636Z,11.80
2022-11-18T13:20:33.915Z,11.80
2022-11-18T13:21:59.110Z,11.90
2022-11-18T13:23:23.947Z,11.90
2022-11-18T13:24:26.540Z,11.90
2022-11-18T13:25:32.365Z,12.00
2022-11-18T13:26:36.664Z,12.00
2022-11-18T13:28:19.593Z,12.00
2022-11-18T13:29:41.567Z,12.00
2022-11-18T13:30:59.118Z,12.00
2022-11-18T13:32:12.243Z,12.00
2022-11-18T13:33:14.296Z,12.00
2022-11-18T13:34:31.112Z,11.90
2022-11-18T13:35:33.438Z,11.90
2022-11-18T13:36:37.409Z,11.90
2022-11-18T13:37:51.222Z,12.00
2022-11-18T13:38:56.447Z,11.90
2022-11-18T13:39:58.623Z,11.90
2022-11-18T13:41:08.203Z,11.90
2022-11-18T13:42:32.884Z,12.00
2022-11-18T13:43:37.889Z,12.00
2022-11-18T13:44:57.582Z,12.00
2022-11-18T13:46:04.364Z,12.00
2022-11-18T13:47:26.711Z,12.00
2022-11-18T13:48:29.114Z,12.00
2022-11-18T13:49:51.271Z,12.10
2022-11-18T13:50:55.497Z,12.10
2022-11-18T13:51:59.892Z,12.10
2022-11-18T13:53:27.331Z,12.20
2022-11-18T13:54:29.664Z,12.30
2022-11-18T13:55:37.099Z,12.40
2022-11-18T13:56:40.517Z,12.40
2022-11-18T13:57:49.320Z,12.40
2022-11-18T14:00:27.612Z,12.50
2022-11-18T14:01:32.402Z,12.40
2022-11-18T14:02:43.415Z,12.50
2022-11-18T14:03:50.011Z,12.60
2022-11-18T14:04:55.475Z,12.60
2022-11-18T14:05:58.430Z,12.70
2022-11-18T14:07:26.105Z,12.60
2022-11-18T14:08:37.509Z,12.70
2022-11-18T14:09:53.119Z,12.70
2022-11-18T14:10:54.915Z,12.70
2022-11-18T14:12:07.435Z,12.70
2022-11-18T14:13:20.782Z,12.60
2022-11-18T14:14:33.989Z,12.60
2022-11-18T14:15:43.363Z,12.50
2022-11-18T14:16:47.083Z,12.50
2022-11-18T14:17:56.202Z,12.50
2022-11-18T14:18:58.380Z,12.50
2022-11-18T14:20:08.908Z,12.50
2022-11-18T14:21:13.257Z,12.50
2022-11-18T14:22:27.968Z,12.60
2022-11-18T14:23:34.479Z,12.60
2022-11-18T14:24:36.290Z,12.60
2022-11-18T14:25:39.504Z,12.60
2022-11-18T14:26:41.402Z,12.60
2022-11-18T14:27:45.536Z,12.70
2022-11-18T14:28:57.762Z,12.70
2022-11-18T14:29:59.920Z,12.70
2022-11-18T14:31:03.125Z,12.80
2022-11-18T14:32:18.696Z,12.80
2022-11-18T14:33:31.613Z,12.70
2022-11-18T14:34:33.291Z,12.80
2022-11-18T14:35:36.326Z,12.70
2022-11-18T14:36:41.071Z,12.70
2022-11-18T14:37:43.698Z,12.70
2022-11-18T14:39:11.426Z,12.70
2022-11-18T14:40:14.114Z,12.80
2022-11-18T14:41:43.629Z,12.80
2022-11-18T14:42:46.913Z,12.90
2022-11-18T14:43:49.061Z,12.70
2022-11-18T14:44:52.357Z,12.70